PWSweather.com
Personal Weather Stations
Station Observations

DeskleSI

Lat: 46.0525, Lon: 13.6103

Elevation: 300

Station Type: Oregon Scientific WMR200

http://vreme-deskle.slohosting.com/

Latest ConditionsUpdated 11:40:02 PM GMT+01:01 Sunday, Jan 19, 2020
Currently Today's Max Today's Min Today's Average
Temperature 40.5°F4.7°C 52.3°F11.3°C 35.8°F2.1°C 43.1°F6.2°C
Dew Point 18.6°F-7.4°C 30.1°F-1.1°C 14.9°F-9.5°C 22.6°F-5.2°C
Winds 3.6 mph NE5.8 kmh NE 10.1 mph -16.3 kmh - - 2.9 mph 4.7 kmh
Wind Gusts 6.0 mph9.7 kmh 13.2 mph21.2 kmh - -
Humidity 41% 71% 23% 46%
Pressure 30.57 in1035.2 mb 30.57 in1035.2 mb 30.21 in1023.0 mb -
Hour Temp Dew Point Humidity Winds Wind Gusts Pressure Precip Precip Rate Daily Precip Total
11:40 PM 40.5°F4.7°C 18.6°F-7.4°C 41% 3.6 mph NE5.8 kmh NE 6.0 mph9.7 kmh 30.57 in1035.2 mb 0.00 in0.0 mm 0.00 in0.0 mm 0.00 in0.0 mm
11:35 PM 39.9°F4.4°C 18.1°F-7.7°C 41% 2.9 mph SE4.7 kmh SE 5.8 mph9.3 kmh 30.57 in1035.2 mb 0.00 in0.0 mm 0.00 in0.0 mm 0.00 in0.0 mm
11:30 PM 39.2°F4.0°C 18.0°F-7.8°C 42% 2.9 mph S4.7 kmh S 4.3 mph6.9 kmh 30.57 in1035.2 mb 0.00 in0.0 mm 0.00 in0.0 mm 0.00 in0.0 mm
11:25 PM 39.0°F3.9°C 18.4°F-7.6°C 43% 2.0 mph S3.2 kmh S 6.0 mph9.7 kmh 30.57 in1035.2 mb 0.00 in0.0 mm 0.00 in0.0 mm 0.00 in0.0 mm
11:20 PM 38.5°F3.6°C 17.9°F-7.8°C 43% 3.8 mph SSE6.1 kmh SSE 6.0 mph9.7 kmh 30.57 in1035.2 mb 0.00 in0.0 mm 0.00 in0.0 mm 0.00 in0.0 mm
11:15 PM 38.1°F3.4°C 17.6°F-8.0°C 43% 3.8 mph S6.1 kmh S 4.7 mph7.6 kmh 30.57 in1035.2 mb 0.00 in0.0 mm 0.00 in0.0 mm 0.00 in0.0 mm
11:10 PM 38.1°F3.4°C 17.6°F-8.0°C 43% 2.9 mph S4.7 kmh S 4.0 mph6.4 kmh 30.57 in1035.2 mb 0.00 in0.0 mm 0.00 in0.0 mm 0.00 in0.0 mm
11:05 PM 38.5°F3.6°C 17.9°F-7.8°C 43% 3.1 mph SSE5.0 kmh SSE 4.0 mph6.4 kmh 30.57 in1035.2 mb 0.00 in0.0 mm 0.00 in0.0 mm 0.00 in0.0 mm
11:00 PM 37.8°F3.2°C 17.2°F-8.2°C 43% 2.7 mph S4.3 kmh S 4.3 mph6.9 kmh 30.54 in1034.2 mb 0.00 in0.0 mm 0.00 in0.0 mm 0.00 in0.0 mm
10:55 PM 37.6°F3.1°C 17.1°F-8.3°C 43% 2.0 mph SW3.2 kmh SW 4.3 mph6.9 kmh 30.54 in1034.2 mb 0.00 in0.0 mm 0.00 in0.0 mm 0.00 in0.0 mm
10:50 PM 38.1°F3.4°C 17.6°F-8.0°C 43% 2.7 mph WSW4.3 kmh WSW 3.4 mph5.5 kmh 30.54 in1034.2 mb 0.00 in0.0 mm 0.00 in0.0 mm 0.00 in0.0 mm
10:45 PM 37.8°F3.2°C 17.2°F-8.2°C 43% 2.0 mph WSW3.2 kmh WSW 5.8 mph9.3 kmh 30.54 in1034.2 mb 0.00 in0.0 mm 0.00 in0.0 mm 0.00 in0.0 mm
10:40 PM 37.6°F3.1°C 17.1°F-8.3°C 43% 2.0 mph S3.2 kmh S 5.8 mph9.3 kmh 30.54 in1034.2 mb 0.00 in0.0 mm 0.00 in0.0 mm 0.00 in0.0 mm
10:35 PM 37.8°F3.2°C 17.2°F-8.2°C 43% 0.9 mph SSW1.4 kmh SSW 4.0 mph6.4 kmh 30.54 in1034.2 mb 0.00 in0.0 mm 0.00 in0.0 mm 0.00 in0.0 mm
10:30 PM 38.1°F3.4°C 17.0°F-8.3°C 42% 2.2 mph NW3.5 kmh NW 4.0 mph6.4 kmh 30.54 in1034.2 mb 0.00 in0.0 mm 0.00 in0.0 mm 0.00 in0.0 mm
10:25 PM 37.9°F3.3°C 16.9°F-8.4°C 42% 2.2 mph SW3.5 kmh SW 3.8 mph6.1 kmh 30.54 in1034.2 mb 0.00 in0.0 mm 0.00 in0.0 mm 0.00 in0.0 mm
10:20 PM 37.6°F3.1°C 16.0°F-8.9°C 41% 2.9 mph S4.7 kmh S 3.8 mph6.1 kmh 30.54 in1034.2 mb 0.00 in0.0 mm 0.00 in0.0 mm 0.00 in0.0 mm
10:15 PM 38.1°F3.4°C 16.5°F-8.6°C 41% 1.6 mph S2.6 kmh S 3.6 mph5.8 kmh 30.51 in1033.2 mb 0.00 in0.0 mm 0.00 in0.0 mm 0.00 in0.0 mm
10:10 PM 38.8°F3.8°C 16.5°F-8.6°C 40% 2.7 mph WSW4.3 kmh WSW 3.6 mph5.8 kmh 30.51 in1033.2 mb 0.00 in0.0 mm 0.00 in0.0 mm 0.00 in0.0 mm
10:05 PM 39.4°F4.1°C 16.4°F-8.7°C 39% 2.9 mph SW4.7 kmh SW 3.4 mph5.5 kmh 30.51 in1033.2 mb 0.00 in0.0 mm 0.00 in0.0 mm 0.00 in0.0 mm
10:00 PM 39.4°F4.1°C 16.4°F-8.7°C 39% 1.3 mph S2.1 kmh S 3.4 mph5.5 kmh 30.54 in1034.2 mb 0.00 in0.0 mm 0.00 in0.0 mm 0.00 in0.0 mm
09:55 PM 39.7°F4.3°C 16.8°F-8.4°C 39% 2.2 mph SW3.5 kmh SW 3.4 mph5.5 kmh 30.54 in1034.2 mb 0.00 in0.0 mm 0.00 in0.0 mm 0.00 in0.0 mm
09:50 PM 40.3°F4.6°C 16.7°F-8.5°C 38% Calm Calm 3.1 mph5.0 kmh 30.54 in1034.2 mb 0.00 in0.0 mm 0.00 in0.0 mm 0.00 in0.0 mm
09:45 PM 40.3°F4.6°C 16.7°F-8.5°C 38% 2.7 mph WSW4.3 kmh WSW 3.1 mph5.0 kmh 30.54 in1034.2 mb 0.00 in0.0 mm 0.00 in0.0 mm 0.00 in0.0 mm
09:40 PM 40.5°F4.7°C 16.8°F-8.4°C 38% 1.3 mph SW2.1 kmh SW 2.9 mph4.7 kmh 30.54 in1034.2 mb 0.00 in0.0 mm 0.00 in0.0 mm 0.00 in0.0 mm
09:35 PM 41.4°F5.2°C 17.0°F-8.3°C 37% 2.5 mph S4.0 kmh S 3.8 mph6.1 kmh 30.54 in1034.2 mb 0.00 in0.0 mm 0.00 in0.0 mm 0.00 in0.0 mm
09:30 PM 41.5°F5.3°C 17.2°F-8.2°C 37% 1.6 mph SE2.6 kmh SE 4.3 mph6.9 kmh 30.54 in1034.2 mb 0.00 in0.0 mm 0.00 in0.0 mm 0.00 in0.0 mm
09:25 PM 41.5°F5.3°C 17.2°F-8.2°C 37% 3.8 mph SSE6.1 kmh SSE 5.4 mph8.7 kmh 30.54 in1034.2 mb 0.00 in0.0 mm 0.00 in0.0 mm 0.00 in0.0 mm
09:20 PM 42.1°F5.6°C 17.6°F-8.0°C 37% 3.4 mph SSE5.5 kmh SSE 5.4 mph8.7 kmh 30.54 in1034.2 mb 0.00 in0.0 mm 0.00 in0.0 mm 0.00 in0.0 mm
09:15 PM 42.4°F5.8°C 18.0°F-7.8°C 37% 2.0 mph SSE3.2 kmh SSE 3.6 mph5.8 kmh 30.54 in1034.2 mb 0.00 in0.0 mm 0.00 in0.0 mm 0.00 in0.0 mm
09:10 PM 43.0°F6.1°C 18.5°F-7.5°C 37% 2.9 mph E4.7 kmh E 4.3 mph6.9 kmh 30.54 in1034.2 mb 0.00 in0.0 mm 0.00 in0.0 mm 0.00 in0.0 mm
09:05 PM 43.3°F6.3°C 18.1°F-7.7°C 36% 2.5 mph ENE4.0 kmh ENE 6.5 mph10.5 kmh 30.54 in1034.2 mb 0.00 in0.0 mm 0.00 in0.0 mm 0.00 in0.0 mm
09:00 PM 43.2°F6.2°C 18.0°F-7.8°C 36% 5.4 mph ENE8.7 kmh ENE 6.5 mph10.5 kmh 30.54 in1034.2 mb 0.00 in0.0 mm 0.00 in0.0 mm 0.00 in0.0 mm
08:55 PM 42.8°F6.0°C 18.3°F-7.6°C 37% 2.7 mph ENE4.3 kmh ENE 7.6 mph12.2 kmh 30.54 in1034.2 mb 0.00 in0.0 mm 0.00 in0.0 mm 0.00 in0.0 mm
08:50 PM 42.1°F5.6°C 18.3°F-7.6°C 38% 5.4 mph E8.7 kmh E 7.6 mph12.2 kmh 30.54 in1034.2 mb 0.00 in0.0 mm 0.00 in0.0 mm 0.00 in0.0 mm
08:45 PM 41.4°F5.2°C 18.2°F-7.7°C 39% 3.8 mph E6.1 kmh E 7.4 mph11.9 kmh 30.51 in1033.2 mb 0.00 in0.0 mm 0.00 in0.0 mm 0.00 in0.0 mm
08:40 PM 40.8°F4.9°C 18.3°F-7.6°C 40% 3.8 mph E6.1 kmh E 7.4 mph11.9 kmh 30.51 in1033.2 mb 0.00 in0.0 mm 0.00 in0.0 mm 0.00 in0.0 mm
08:35 PM 39.6°F4.2°C 17.8°F-7.9°C 41% 2.0 mph ESE3.2 kmh ESE 4.9 mph7.9 kmh 30.51 in1033.2 mb 0.00 in0.0 mm 0.00 in0.0 mm 0.00 in0.0 mm
08:30 PM 39.2°F4.0°C 18.0°F-7.8°C 42% 1.6 mph SE2.6 kmh SE 3.8 mph6.1 kmh 30.51 in1033.2 mb 0.00 in0.0 mm 0.00 in0.0 mm 0.00 in0.0 mm
08:25 PM 38.8°F3.8°C 18.2°F-7.7°C 43% 1.3 mph ENE2.1 kmh ENE 6.0 mph9.7 kmh 30.51 in1033.2 mb 0.00 in0.0 mm 0.00 in0.0 mm 0.00 in0.0 mm
08:20 PM 38.8°F3.8°C 18.8°F-7.3°C 44% Calm Calm 6.0 mph9.7 kmh 30.51 in1033.2 mb 0.00 in0.0 mm 0.00 in0.0 mm 0.00 in0.0 mm
08:15 PM 38.5°F3.6°C 18.4°F-7.6°C 44% 1.3 mph SE2.1 kmh SE 3.6 mph5.8 kmh 30.48 in1032.2 mb 0.00 in0.0 mm 0.00 in0.0 mm 0.00 in0.0 mm
08:10 PM 37.9°F3.3°C 17.9°F-7.8°C 44% 3.1 mph SE5.0 kmh SE 3.6 mph5.8 kmh 30.48 in1032.2 mb 0.00 in0.0 mm 0.00 in0.0 mm 0.00 in0.0 mm
08:05 PM 37.8°F3.2°C 17.8°F-7.9°C 44% Calm Calm 3.8 mph6.1 kmh 30.48 in1032.2 mb 0.00 in0.0 mm 0.00 in0.0 mm 0.00 in0.0 mm
08:00 PM 37.6°F3.1°C 17.6°F-8.0°C 44% 1.3 mph SSW2.1 kmh SSW 3.8 mph6.1 kmh 30.48 in1032.2 mb 0.00 in0.0 mm 0.00 in0.0 mm 0.00 in0.0 mm
07:55 PM 37.4°F3.0°C 18.0°F-7.8°C 45% Calm Calm 2.7 mph4.3 kmh 30.48 in1032.2 mb 0.00 in0.0 mm 0.00 in0.0 mm 0.00 in0.0 mm
07:50 PM 37.2°F2.9°C 17.8°F-7.9°C 45% 2.2 mph SE3.5 kmh SE 2.9 mph4.7 kmh 30.48 in1032.2 mb 0.00 in0.0 mm 0.00 in0.0 mm 0.00 in0.0 mm
07:45 PM 37.0°F2.8°C 17.6°F-8.0°C 45% 1.6 mph SE2.6 kmh SE 2.9 mph4.7 kmh 30.48 in1032.2 mb 0.00 in0.0 mm 0.00 in0.0 mm 0.00 in0.0 mm
07:40 PM 36.9°F2.7°C 18.0°F-7.8°C 46% 1.6 mph NNW2.6 kmh NNW 2.7 mph4.3 kmh 30.48 in1032.2 mb 0.00 in0.0 mm 0.00 in0.0 mm 0.00 in0.0 mm
07:35 PM 36.7°F2.6°C 17.8°F-7.9°C 46% Calm Calm 3.1 mph5.0 kmh 30.48 in1032.2 mb 0.00 in0.0 mm 0.00 in0.0 mm 0.00 in0.0 mm
07:30 PM 36.5°F2.5°C 17.7°F-7.9°C 46% 1.3 mph E2.1 kmh E 3.6 mph5.8 kmh 30.48 in1032.2 mb 0.00 in0.0 mm 0.00 in0.0 mm 0.00 in0.0 mm
07:25 PM 36.0°F2.2°C 17.2°F-8.2°C 46% 2.7 mph E4.3 kmh E 3.6 mph5.8 kmh 30.48 in1032.2 mb 0.00 in0.0 mm 0.00 in0.0 mm 0.00 in0.0 mm
07:20 PM 35.8°F2.1°C 17.0°F-8.3°C 46% 2.0 mph ENE3.2 kmh ENE 3.4 mph5.5 kmh 30.48 in1032.2 mb 0.00 in0.0 mm 0.00 in0.0 mm 0.00 in0.0 mm
07:15 PM 36.1°F2.3°C 17.3°F-8.2°C 46% 2.5 mph NE4.0 kmh NE 3.4 mph5.5 kmh 30.48 in1032.2 mb 0.00 in0.0 mm 0.00 in0.0 mm 0.00 in0.0 mm
07:10 PM 36.1°F2.3°C 16.8°F-8.4°C 45% 0.9 mph NNE1.4 kmh NNE 2.7 mph4.3 kmh 30.48 in1032.2 mb 0.00 in0.0 mm 0.00 in0.0 mm 0.00 in0.0 mm
07:05 PM 36.1°F2.3°C 16.8°F-8.4°C 45% 1.6 mph NNE2.6 kmh NNE 3.6 mph5.8 kmh 30.48 in1032.2 mb 0.00 in0.0 mm 0.00 in0.0 mm 0.00 in0.0 mm
07:00 PM 36.1°F2.3°C 16.8°F-8.4°C 45% 1.6 mph NNW2.6 kmh NNW 3.6 mph5.8 kmh 30.48 in1032.2 mb 0.00 in0.0 mm 0.00 in0.0 mm 0.00 in0.0 mm
06:55 PM 36.3°F2.4°C 17.0°F-8.3°C 45% Calm Calm 2.5 mph4.0 kmh 30.48 in1032.2 mb 0.00 in0.0 mm 0.00 in0.0 mm 0.00 in0.0 mm
06:50 PM 36.5°F2.5°C 16.6°F-8.6°C 44% 1.1 mph W1.8 kmh W 2.5 mph4.0 kmh 30.48 in1032.2 mb 0.00 in0.0 mm 0.00 in0.0 mm 0.00 in0.0 mm
06:45 PM 36.9°F2.7°C 17.0°F-8.3°C 44% 0.9 mph NW1.4 kmh NW 2.2 mph3.5 kmh 30.48 in1032.2 mb 0.00 in0.0 mm 0.00 in0.0 mm 0.00 in0.0 mm
06:40 PM 37.0°F2.8°C 17.1°F-8.3°C 44% 1.1 mph W1.8 kmh W 3.4 mph5.5 kmh 30.48 in1032.2 mb 0.00 in0.0 mm 0.00 in0.0 mm 0.00 in0.0 mm
06:35 PM 37.2°F2.9°C 16.2°F-8.8°C 42% 1.1 mph SW1.8 kmh SW 3.6 mph5.8 kmh 30.48 in1032.2 mb 0.00 in0.0 mm 0.00 in0.0 mm 0.00 in0.0 mm
06:30 PM 37.4°F3.0°C 16.4°F-8.7°C 42% 2.0 mph N3.2 kmh N 3.6 mph5.8 kmh 30.45 in1031.2 mb 0.00 in0.0 mm 0.00 in0.0 mm 0.00 in0.0 mm
06:25 PM 38.3°F3.5°C 16.1°F-8.8°C 40% 2.0 mph N3.2 kmh N 3.4 mph5.5 kmh 30.45 in1031.2 mb 0.00 in0.0 mm 0.00 in0.0 mm 0.00 in0.0 mm
06:20 PM 38.3°F3.5°C 15.5°F-9.2°C 39% Calm Calm 2.5 mph4.0 kmh 30.45 in1031.2 mb 0.00 in0.0 mm 0.00 in0.0 mm 0.00 in0.0 mm
06:15 PM 38.5°F3.6°C 15.0°F-9.4°C 38% 1.3 mph WSW2.1 kmh WSW 2.5 mph4.0 kmh 30.45 in1031.2 mb 0.00 in0.0 mm 0.00 in0.0 mm 0.00 in0.0 mm
06:10 PM 39.2°F4.0°C 15.1°F-9.4°C 37% 2.0 mph WSW3.2 kmh WSW 2.5 mph4.0 kmh 30.45 in1031.2 mb 0.00 in0.0 mm 0.00 in0.0 mm 0.00 in0.0 mm
06:05 PM 39.6°F4.2°C 15.4°F-9.2°C 37% Calm Calm 2.0 mph3.2 kmh 30.45 in1031.2 mb 0.00 in0.0 mm 0.00 in0.0 mm 0.00 in0.0 mm
06:00 PM 39.9°F4.4°C 15.1°F-9.4°C 36% Calm Calm 2.9 mph4.7 kmh 30.45 in1031.2 mb 0.00 in0.0 mm 0.00 in0.0 mm 0.00 in0.0 mm
05:55 PM 40.6°F4.8°C 15.7°F-9.1°C 36% 1.6 mph SW2.6 kmh SW 2.9 mph4.7 kmh 30.45 in1031.2 mb 0.00 in0.0 mm 0.00 in0.0 mm 0.00 in0.0 mm
05:50 PM 40.8°F4.9°C 15.2°F-9.3°C 35% Calm Calm 2.9 mph4.7 kmh 30.45 in1031.2 mb 0.00 in0.0 mm 0.00 in0.0 mm 0.00 in0.0 mm
05:45 PM 41.5°F5.3°C 15.2°F-9.3°C 34% 2.0 mph WSW3.2 kmh WSW 3.4 mph5.5 kmh 30.42 in1030.1 mb 0.00 in0.0 mm 0.00 in0.0 mm 0.00 in0.0 mm
05:40 PM 41.7°F5.4°C 15.4°F-9.2°C 34% 2.9 mph S4.7 kmh S 3.4 mph5.5 kmh 30.42 in1030.1 mb 0.00 in0.0 mm 0.00 in0.0 mm 0.00 in0.0 mm
05:35 PM 42.3°F5.7°C 15.9°F-8.9°C 34% Calm Calm 2.9 mph4.7 kmh 30.42 in1030.1 mb 0.00 in0.0 mm 0.00 in0.0 mm 0.00 in0.0 mm
05:30 PM 43.0°F6.1°C 15.8°F-9.0°C 33% 1.1 mph NW1.8 kmh NW 3.4 mph5.5 kmh 30.42 in1030.1 mb 0.00 in0.0 mm 0.00 in0.0 mm 0.00 in0.0 mm
05:25 PM 43.7°F6.5°C 16.4°F-8.7°C 33% 2.0 mph WNW3.2 kmh WNW 3.4 mph5.5 kmh 30.42 in1030.1 mb 0.00 in0.0 mm 0.00 in0.0 mm 0.00 in0.0 mm
05:20 PM 44.1°F6.7°C 16.8°F-8.4°C 33% Calm Calm 2.2 mph3.5 kmh 30.42 in1030.1 mb 0.00 in0.0 mm 0.00 in0.0 mm 0.00 in0.0 mm
05:15 PM 44.2°F6.8°C 16.9°F-8.4°C 33% 1.3 mph SSW2.1 kmh SSW 2.5 mph4.0 kmh 30.42 in1030.1 mb 0.00 in0.0 mm 0.00 in0.0 mm 0.00 in0.0 mm
05:10 PM 45.7°F7.6°C 17.5°F-8.1°C 32% 2.0 mph S3.2 kmh S 4.0 mph6.4 kmh 30.42 in1030.1 mb 0.00 in0.0 mm 0.00 in0.0 mm 0.00 in0.0 mm
05:05 PM 46.4°F8.0°C 15.8°F-9.0°C 29% Calm Calm 4.0 mph6.4 kmh 30.42 in1030.1 mb 0.00 in0.0 mm 0.00 in0.0 mm 0.00 in0.0 mm
05:00 PM 47.3°F8.5°C 16.6°F-8.6°C 29% Calm Calm 3.8 mph6.1 kmh 30.42 in1030.1 mb 0.00 in0.0 mm 0.00 in0.0 mm 0.00 in0.0 mm
04:55 PM 47.8°F8.8°C 17.1°F-8.3°C 29% 1.3 mph ENE2.1 kmh ENE 5.8 mph9.3 kmh 30.42 in1030.1 mb 0.00 in0.0 mm 0.00 in0.0 mm 0.00 in0.0 mm
04:50 PM 48.0°F8.9°C 17.2°F-8.2°C 29% 3.4 mph ENE5.5 kmh ENE 6.3 mph10.1 kmh 30.42 in1030.1 mb 0.00 in0.0 mm 0.00 in0.0 mm 0.00 in0.0 mm
04:45 PM 48.2°F9.0°C 14.9°F-9.5°C 26% 3.4 mph E5.5 kmh E 6.3 mph10.1 kmh 30.39 in1029.1 mb 0.00 in0.0 mm 0.00 in0.0 mm 0.00 in0.0 mm
04:40 PM 48.4°F9.1°C 15.0°F-9.4°C 26% 2.7 mph E4.3 kmh E 5.4 mph8.7 kmh 30.39 in1029.1 mb 0.00 in0.0 mm 0.00 in0.0 mm 0.00 in0.0 mm
04:35 PM 48.7°F9.3°C 15.3°F-9.3°C 26% 1.1 mph ENE1.8 kmh ENE 5.8 mph9.3 kmh 30.39 in1029.1 mb 0.00 in0.0 mm 0.00 in0.0 mm 0.00 in0.0 mm
04:30 PM 48.9°F9.4°C 15.5°F-9.2°C 26% 4.3 mph E6.9 kmh E 7.6 mph12.2 kmh 30.42 in1030.1 mb 0.00 in0.0 mm 0.00 in0.0 mm 0.00 in0.0 mm
04:25 PM 49.1°F9.5°C 15.6°F-9.1°C 26% 3.6 mph E5.8 kmh E 7.6 mph12.2 kmh 30.42 in1030.1 mb 0.00 in0.0 mm 0.00 in0.0 mm 0.00 in0.0 mm
04:20 PM 49.3°F9.6°C 15.8°F-9.0°C 26% 6.7 mph ESE10.8 kmh ESE 10.7 mph17.2 kmh 30.42 in1030.1 mb 0.00 in0.0 mm 0.00 in0.0 mm 0.00 in0.0 mm
04:15 PM 49.5°F9.7°C 15.9°F-8.9°C 26% 6.9 mph ESE11.1 kmh ESE 10.7 mph17.2 kmh 30.39 in1029.1 mb 0.00 in0.0 mm 0.00 in0.0 mm 0.00 in0.0 mm
04:10 PM 49.3°F9.6°C 15.8°F-9.0°C 26% 6.0 mph ESE9.7 kmh ESE 9.6 mph15.4 kmh 30.39 in1029.1 mb 0.00 in0.0 mm 0.00 in0.0 mm 0.00 in0.0 mm
04:05 PM 49.6°F9.8°C 16.1°F-8.8°C 26% 4.9 mph ESE7.9 kmh ESE 8.5 mph13.7 kmh 30.39 in1029.1 mb 0.00 in0.0 mm 0.00 in0.0 mm 0.00 in0.0 mm
04:00 PM 49.6°F9.8°C 16.1°F-8.8°C 26% 6.5 mph ESE10.5 kmh ESE 7.6 mph12.2 kmh 30.36 in1028.1 mb 0.00 in0.0 mm 0.00 in0.0 mm 0.00 in0.0 mm
03:55 PM 49.8°F9.9°C 16.3°F-8.7°C 26% 3.6 mph E5.8 kmh E 10.5 mph16.9 kmh 30.36 in1028.1 mb 0.00 in0.0 mm 0.00 in0.0 mm 0.00 in0.0 mm
03:50 PM 50.0°F10.0°C 16.4°F-8.7°C 26% 5.6 mph E9.0 kmh E 10.5 mph16.9 kmh 30.36 in1028.1 mb 0.00 in0.0 mm 0.00 in0.0 mm 0.00 in0.0 mm
03:45 PM 50.2°F10.1°C 16.6°F-8.6°C 26% 4.3 mph ESE6.9 kmh ESE 10.3 mph16.6 kmh 30.33 in1027.1 mb 0.00 in0.0 mm 0.00 in0.0 mm 0.00 in0.0 mm
03:40 PM 50.2°F10.1°C 16.6°F-8.6°C 26% 4.7 mph E7.6 kmh E 10.3 mph16.6 kmh 30.33 in1027.1 mb 0.00 in0.0 mm 0.00 in0.0 mm 0.00 in0.0 mm
03:35 PM 50.4°F10.2°C 16.7°F-8.5°C 26% 7.6 mph E12.2 kmh E 12.5 mph20.1 kmh 30.33 in1027.1 mb 0.00 in0.0 mm 0.00 in0.0 mm 0.00 in0.0 mm
03:30 PM 50.7°F10.4°C 17.0°F-8.3°C 26% 6.7 mph E10.8 kmh E 12.5 mph20.1 kmh 30.36 in1028.1 mb 0.00 in0.0 mm 0.00 in0.0 mm 0.00 in0.0 mm
03:25 PM 50.7°F10.4°C 17.0°F-8.3°C 26% 6.7 mph E10.8 kmh E 12.5 mph20.1 kmh 30.36 in1028.1 mb 0.00 in0.0 mm 0.00 in0.0 mm 0.00 in0.0 mm
03:20 PM 51.1°F10.6°C 17.3°F-8.2°C 26% 8.9 mph E14.3 kmh E 12.5 mph20.1 kmh 30.36 in1028.1 mb 0.00 in0.0 mm 0.00 in0.0 mm 0.00 in0.0 mm
03:15 PM 51.3°F10.7°C 17.5°F-8.1°C 26% 4.9 mph E7.9 kmh E 12.8 mph20.6 kmh 30.36 in1028.1 mb 0.00 in0.0 mm 0.00 in0.0 mm 0.00 in0.0 mm
03:10 PM 51.3°F10.7°C 17.5°F-8.1°C 26% 6.0 mph E9.7 kmh E 13.0 mph20.9 kmh 30.36 in1028.1 mb 0.00 in0.0 mm 0.00 in0.0 mm 0.00 in0.0 mm
03:05 PM 51.4°F10.8°C 17.6°F-8.0°C 26% 5.8 mph E9.3 kmh E 13.0 mph20.9 kmh 30.36 in1028.1 mb 0.00 in0.0 mm 0.00 in0.0 mm 0.00 in0.0 mm
03:00 PM 51.4°F10.8°C 17.6°F-8.0°C 26% 8.5 mph ESE13.7 kmh ESE 11.4 mph18.3 kmh 30.36 in1028.1 mb 0.00 in0.0 mm 0.00 in0.0 mm 0.00 in0.0 mm
02:55 PM 51.4°F10.8°C 17.6°F-8.0°C 26% 9.4 mph E15.1 kmh E 11.4 mph18.3 kmh 30.36 in1028.1 mb 0.00 in0.0 mm 0.00 in0.0 mm 0.00 in0.0 mm
02:50 PM 51.6°F10.9°C 17.8°F-7.9°C 26% 5.6 mph E9.0 kmh E 10.3 mph16.6 kmh 30.36 in1028.1 mb 0.00 in0.0 mm 0.00 in0.0 mm 0.00 in0.0 mm
02:45 PM 51.8°F11.0°C 18.0°F-7.8°C 26% 4.7 mph E7.6 kmh E 10.1 mph16.3 kmh 30.33 in1027.1 mb 0.00 in0.0 mm 0.00 in0.0 mm 0.00 in0.0 mm
02:40 PM 51.8°F11.0°C 18.0°F-7.8°C 26% 7.2 mph E11.6 kmh E 13.2 mph21.2 kmh 30.33 in1027.1 mb 0.00 in0.0 mm 0.00 in0.0 mm 0.00 in0.0 mm
02:35 PM 51.8°F11.0°C 18.0°F-7.8°C 26% 5.6 mph ENE9.0 kmh ENE 13.2 mph21.2 kmh 30.33 in1027.1 mb 0.00 in0.0 mm 0.00 in0.0 mm 0.00 in0.0 mm
02:30 PM 51.8°F11.0°C 18.0°F-7.8°C 26% 10.1 mph E16.3 kmh E 12.3 mph19.8 kmh 30.33 in1027.1 mb 0.00 in0.0 mm 0.00 in0.0 mm 0.00 in0.0 mm
02:25 PM 52.0°F11.1°C 15.3°F-9.3°C 23% 8.7 mph E14.0 kmh E 10.7 mph17.2 kmh 30.33 in1027.1 mb 0.00 in0.0 mm 0.00 in0.0 mm 0.00 in0.0 mm
02:20 PM 52.2°F11.2°C 18.3°F-7.6°C 26% 8.5 mph E13.7 kmh E 8.5 mph13.7 kmh 30.33 in1027.1 mb 0.00 in0.0 mm 0.00 in0.0 mm 0.00 in0.0 mm
02:15 PM 52.2°F11.2°C 18.3°F-7.6°C 26% 5.6 mph E9.0 kmh E 7.8 mph12.6 kmh 30.33 in1027.1 mb 0.00 in0.0 mm 0.00 in0.0 mm 0.00 in0.0 mm
02:10 PM 52.0°F11.1°C 18.1°F-7.7°C 26% 6.3 mph E10.1 kmh E 9.8 mph15.8 kmh 30.33 in1027.1 mb 0.00 in0.0 mm 0.00 in0.0 mm 0.00 in0.0 mm
02:05 PM 51.6°F10.9°C 17.8°F-7.9°C 26% 5.8 mph E9.3 kmh E 10.7 mph17.2 kmh 30.33 in1027.1 mb 0.00 in0.0 mm 0.00 in0.0 mm 0.00 in0.0 mm
02:00 PM 52.0°F11.1°C 18.1°F-7.7°C 26% 7.4 mph E11.9 kmh E 10.7 mph17.2 kmh 30.33 in1027.1 mb 0.00 in0.0 mm 0.00 in0.0 mm 0.00 in0.0 mm
01:55 PM 51.8°F11.0°C 18.0°F-7.8°C 26% 6.0 mph E9.7 kmh E 10.5 mph16.9 kmh 30.33 in1027.1 mb 0.00 in0.0 mm 0.00 in0.0 mm 0.00 in0.0 mm
01:50 PM 52.3°F11.3°C 18.4°F-7.6°C 26% 4.3 mph E6.9 kmh E 9.2 mph14.8 kmh 30.33 in1027.1 mb 0.00 in0.0 mm 0.00 in0.0 mm 0.00 in0.0 mm
01:45 PM 52.2°F11.2°C 18.3°F-7.6°C 26% 3.6 mph E5.8 kmh E 9.8 mph15.8 kmh 30.33 in1027.1 mb 0.00 in0.0 mm 0.00 in0.0 mm 0.00 in0.0 mm
01:40 PM 52.0°F11.1°C 18.1°F-7.7°C 26% 6.9 mph E11.1 kmh E 9.8 mph15.8 kmh 30.33 in1027.1 mb 0.00 in0.0 mm 0.00 in0.0 mm 0.00 in0.0 mm
01:35 PM 51.6°F10.9°C 20.4°F-6.4°C 29% 4.0 mph ENE6.4 kmh ENE 8.1 mph13.0 kmh 30.33 in1027.1 mb 0.00 in0.0 mm 0.00 in0.0 mm 0.00 in0.0 mm
01:30 PM 51.6°F10.9°C 20.4°F-6.4°C 29% 6.0 mph ENE9.7 kmh ENE 8.1 mph13.0 kmh 30.33 in1027.1 mb 0.00 in0.0 mm 0.00 in0.0 mm 0.00 in0.0 mm
01:25 PM 51.4°F10.8°C 17.6°F-8.0°C 26% 4.5 mph ENE7.2 kmh ENE 8.5 mph13.7 kmh 30.33 in1027.1 mb 0.00 in0.0 mm 0.00 in0.0 mm 0.00 in0.0 mm
01:20 PM 51.4°F10.8°C 20.2°F-6.6°C 29% 5.4 mph ENE8.7 kmh ENE 8.5 mph13.7 kmh 30.33 in1027.1 mb 0.00 in0.0 mm 0.00 in0.0 mm 0.00 in0.0 mm
01:15 PM 51.4°F10.8°C 20.2°F-6.6°C 29% 4.0 mph E6.4 kmh E 8.1 mph13.0 kmh 30.33 in1027.1 mb 0.00 in0.0 mm 0.00 in0.0 mm 0.00 in0.0 mm
01:10 PM 51.4°F10.8°C 20.2°F-6.6°C 29% 4.7 mph ENE7.6 kmh ENE 8.1 mph13.0 kmh 30.33 in1027.1 mb 0.00 in0.0 mm 0.00 in0.0 mm 0.00 in0.0 mm
01:05 PM 51.3°F10.7°C 20.0°F-6.7°C 29% 3.6 mph ENE5.8 kmh ENE 9.4 mph15.1 kmh 30.33 in1027.1 mb 0.00 in0.0 mm 0.00 in0.0 mm 0.00 in0.0 mm
01:00 PM 51.1°F10.6°C 19.9°F-6.7°C 29% 4.0 mph ENE6.4 kmh ENE 9.4 mph15.1 kmh 30.33 in1027.1 mb 0.00 in0.0 mm 0.00 in0.0 mm 0.00 in0.0 mm
12:55 PM 51.3°F10.7°C 21.6°F-5.8°C 31% 5.6 mph E9.0 kmh E 10.7 mph17.2 kmh 30.33 in1027.1 mb 0.00 in0.0 mm 0.00 in0.0 mm 0.00 in0.0 mm
12:50 PM 51.3°F10.7°C 20.0°F-6.7°C 29% 8.7 mph E14.0 kmh E 10.7 mph17.2 kmh 30.33 in1027.1 mb 0.00 in0.0 mm 0.00 in0.0 mm 0.00 in0.0 mm
12:45 PM 51.3°F10.7°C 21.6°F-5.8°C 31% 2.5 mph E4.0 kmh E 8.5 mph13.7 kmh 30.33 in1027.1 mb 0.00 in0.0 mm 0.00 in0.0 mm 0.00 in0.0 mm
12:40 PM 51.1°F10.6°C 21.5°F-5.8°C 31% 5.8 mph ENE9.3 kmh ENE 8.5 mph13.7 kmh 30.33 in1027.1 mb 0.00 in0.0 mm 0.00 in0.0 mm 0.00 in0.0 mm
12:35 PM 51.1°F10.6°C 21.5°F-5.8°C 31% 3.6 mph NE5.8 kmh NE 10.3 mph16.6 kmh 30.33 in1027.1 mb 0.00 in0.0 mm 0.00 in0.0 mm 0.00 in0.0 mm
12:30 PM 51.3°F10.7°C 22.4°F-5.3°C 32% 2.7 mph ENE4.3 kmh ENE 10.3 mph16.6 kmh 30.33 in1027.1 mb 0.00 in0.0 mm 0.00 in0.0 mm 0.00 in0.0 mm
12:25 PM 51.3°F10.7°C 22.4°F-5.3°C 32% 2.9 mph ENE4.7 kmh ENE 6.3 mph10.1 kmh 30.33 in1027.1 mb 0.00 in0.0 mm 0.00 in0.0 mm 0.00 in0.0 mm
12:20 PM 51.3°F10.7°C 22.4°F-5.3°C 32% 4.5 mph NE7.2 kmh NE 7.2 mph11.6 kmh 30.33 in1027.1 mb 0.00 in0.0 mm 0.00 in0.0 mm 0.00 in0.0 mm
12:15 PM 51.3°F10.7°C 22.4°F-5.3°C 32% 4.0 mph NE6.4 kmh NE 7.8 mph12.6 kmh 30.33 in1027.1 mb 0.00 in0.0 mm 0.00 in0.0 mm 0.00 in0.0 mm
12:10 PM 51.3°F10.7°C 22.4°F-5.3°C 32% 3.1 mph NE5.0 kmh NE 8.7 mph14.0 kmh 30.33 in1027.1 mb 0.00 in0.0 mm 0.00 in0.0 mm 0.00 in0.0 mm
12:05 PM 51.3°F10.7°C 22.4°F-5.3°C 32% 6.5 mph NE10.5 kmh NE 8.7 mph14.0 kmh 30.33 in1027.1 mb 0.00 in0.0 mm 0.00 in0.0 mm 0.00 in0.0 mm
12:00 PM 51.3°F10.7°C 22.4°F-5.3°C 32% 2.7 mph ENE4.3 kmh ENE 7.6 mph12.2 kmh 30.33 in1027.1 mb 0.00 in0.0 mm 0.00 in0.0 mm 0.00 in0.0 mm
11:55 AM 51.1°F10.6°C 22.2°F-5.4°C 32% 4.3 mph ENE6.9 kmh ENE 7.8 mph12.6 kmh 30.33 in1027.1 mb 0.00 in0.0 mm 0.00 in0.0 mm 0.00 in0.0 mm
11:50 AM 50.9°F10.5°C 22.8°F-5.1°C 33% 2.0 mph NE3.2 kmh NE 7.8 mph12.6 kmh 30.33 in1027.1 mb 0.00 in0.0 mm 0.00 in0.0 mm 0.00 in0.0 mm
11:45 AM 50.9°F10.5°C 23.5°F-4.7°C 34% 2.7 mph NE4.3 kmh NE 6.5 mph10.5 kmh 30.33 in1027.1 mb 0.00 in0.0 mm 0.00 in0.0 mm 0.00 in0.0 mm
11:40 AM 50.7°F10.4°C 22.6°F-5.2°C 33% 4.0 mph NE6.4 kmh NE 6.5 mph10.5 kmh 30.33 in1027.1 mb 0.00 in0.0 mm 0.00 in0.0 mm 0.00 in0.0 mm
11:35 AM 50.7°F10.4°C 22.6°F-5.2°C 33% 2.0 mph NE3.2 kmh NE 6.5 mph10.5 kmh 30.33 in1027.1 mb 0.00 in0.0 mm 0.00 in0.0 mm 0.00 in0.0 mm
11:30 AM 50.5°F10.3°C 23.2°F-4.9°C 34% 2.9 mph ENE4.7 kmh ENE 6.5 mph10.5 kmh 30.33 in1027.1 mb 0.00 in0.0 mm 0.00 in0.0 mm 0.00 in0.0 mm
11:25 AM 50.4°F10.2°C 23.0°F-5.0°C 34% 5.4 mph NE8.7 kmh NE 6.0 mph9.7 kmh 30.33 in1027.1 mb 0.00 in0.0 mm 0.00 in0.0 mm 0.00 in0.0 mm
11:20 AM 50.2°F10.1°C 23.5°F-4.7°C 35% 3.4 mph NE5.5 kmh NE 9.6 mph15.4 kmh 30.33 in1027.1 mb 0.00 in0.0 mm 0.00 in0.0 mm 0.00 in0.0 mm
11:15 AM 50.4°F10.2°C 23.7°F-4.6°C 35% 4.9 mph ENE7.9 kmh ENE 9.6 mph15.4 kmh 30.33 in1027.1 mb 0.00 in0.0 mm 0.00 in0.0 mm 0.00 in0.0 mm
11:10 AM 50.4°F10.2°C 23.7°F-4.6°C 35% 3.1 mph E5.0 kmh E 6.0 mph9.7 kmh 30.33 in1027.1 mb 0.00 in0.0 mm 0.00 in0.0 mm 0.00 in0.0 mm
11:05 AM 50.5°F10.3°C 23.9°F-4.5°C 35% 4.5 mph ESE7.2 kmh ESE 5.8 mph9.3 kmh 30.33 in1027.1 mb 0.00 in0.0 mm 0.00 in0.0 mm 0.00 in0.0 mm
11:00 AM 50.4°F10.2°C 25.0°F-3.9°C 37% 3.8 mph E6.1 kmh E 6.0 mph9.7 kmh 30.33 in1027.1 mb 0.00 in0.0 mm 0.00 in0.0 mm 0.00 in0.0 mm
10:55 AM 50.2°F10.1°C 22.9°F-5.1°C 34% 3.1 mph E5.0 kmh E 6.0 mph9.7 kmh 30.33 in1027.1 mb 0.00 in0.0 mm 0.00 in0.0 mm 0.00 in0.0 mm
10:50 AM 50.2°F10.1°C 24.9°F-3.9°C 37% 3.4 mph SSE5.5 kmh SSE 5.6 mph9.0 kmh 30.33 in1027.1 mb 0.00 in0.0 mm 0.00 in0.0 mm 0.00 in0.0 mm
10:45 AM 49.5°F9.7°C 28.4°F-2.0°C 44% 2.7 mph S4.3 kmh S 6.3 mph10.1 kmh 30.33 in1027.1 mb 0.00 in0.0 mm 0.00 in0.0 mm 0.00 in0.0 mm
10:40 AM 49.1°F9.5°C 28.7°F-1.8°C 45% 4.0 mph S6.4 kmh S 6.3 mph10.1 kmh 30.33 in1027.1 mb 0.00 in0.0 mm 0.00 in0.0 mm 0.00 in0.0 mm
10:35 AM 48.0°F8.9°C 29.7°F-1.3°C 49% 3.8 mph S6.1 kmh S 5.8 mph9.3 kmh 30.33 in1027.1 mb 0.00 in0.0 mm 0.00 in0.0 mm 0.00 in0.0 mm
10:30 AM 47.7°F8.7°C 29.9°F-1.2°C 50% 3.1 mph SSE5.0 kmh SSE 4.5 mph7.2 kmh 30.33 in1027.1 mb 0.00 in0.0 mm 0.00 in0.0 mm 0.00 in0.0 mm
10:25 AM 46.9°F8.3°C 29.2°F-1.6°C 50% 2.5 mph SE4.0 kmh SE 5.6 mph9.0 kmh 30.33 in1027.1 mb 0.00 in0.0 mm 0.00 in0.0 mm 0.00 in0.0 mm
10:20 AM 46.2°F7.9°C 29.5°F-1.4°C 52% 4.7 mph SE7.6 kmh SE 5.6 mph9.0 kmh 30.33 in1027.1 mb 0.00 in0.0 mm 0.00 in0.0 mm 0.00 in0.0 mm
10:15 AM 45.5°F7.5°C 28.9°F-1.7°C 52% 0.9 mph SE1.4 kmh SE 3.8 mph6.1 kmh 30.33 in1027.1 mb 0.00 in0.0 mm 0.00 in0.0 mm 0.00 in0.0 mm
10:10 AM 45.0°F7.2°C 28.8°F-1.8°C 53% 2.7 mph SE4.3 kmh SE 3.8 mph6.1 kmh 30.33 in1027.1 mb 0.00 in0.0 mm 0.00 in0.0 mm 0.00 in0.0 mm
10:05 AM 44.1°F6.7°C 28.5°F-1.9°C 54% 2.0 mph SE3.2 kmh SE 4.3 mph6.9 kmh 30.33 in1027.1 mb 0.00 in0.0 mm 0.00 in0.0 mm 0.00 in0.0 mm
10:00 AM 43.7°F6.5°C 28.1°F-2.2°C 54% 2.0 mph SE3.2 kmh SE 4.3 mph6.9 kmh 30.33 in1027.1 mb 0.00 in0.0 mm 0.00 in0.0 mm 0.00 in0.0 mm
09:55 AM 43.5°F6.4°C 27.5°F-2.5°C 53% 2.5 mph SE4.0 kmh SE 3.8 mph6.1 kmh 30.33 in1027.1 mb 0.00 in0.0 mm 0.00 in0.0 mm 0.00 in0.0 mm
09:50 AM 43.2°F6.2°C 27.6°F-2.4°C 54% 2.2 mph SE3.5 kmh SE 3.8 mph6.1 kmh 30.33 in1027.1 mb 0.00 in0.0 mm 0.00 in0.0 mm 0.00 in0.0 mm
09:45 AM 43.0°F6.1°C 27.0°F-2.8°C 53% 1.1 mph ESE1.8 kmh ESE 3.4 mph5.5 kmh 30.33 in1027.1 mb 0.00 in0.0 mm 0.00 in0.0 mm 0.00 in0.0 mm
09:40 AM 42.8°F6.0°C 27.3°F-2.6°C 54% 2.5 mph SE4.0 kmh SE 3.4 mph5.5 kmh 30.33 in1027.1 mb 0.00 in0.0 mm 0.00 in0.0 mm 0.00 in0.0 mm
09:35 AM 42.4°F5.8°C 27.0°F-2.8°C 54% 2.7 mph E4.3 kmh E 3.4 mph5.5 kmh 30.33 in1027.1 mb 0.00 in0.0 mm 0.00 in0.0 mm 0.00 in0.0 mm
09:30 AM 42.4°F5.8°C 27.0°F-2.8°C 54% 2.0 mph E3.2 kmh E 4.0 mph6.4 kmh 30.33 in1027.1 mb 0.00 in0.0 mm 0.00 in0.0 mm 0.00 in0.0 mm
09:25 AM 42.3°F5.7°C 26.8°F-2.9°C 54% 3.4 mph ESE5.5 kmh ESE 4.0 mph6.4 kmh 30.33 in1027.1 mb 0.00 in0.0 mm 0.00 in0.0 mm 0.00 in0.0 mm
09:20 AM 42.3°F5.7°C 26.8°F-2.9°C 54% 2.0 mph ESE3.2 kmh ESE 4.5 mph7.2 kmh 30.33 in1027.1 mb 0.00 in0.0 mm 0.00 in0.0 mm 0.00 in0.0 mm
09:15 AM 42.1°F5.6°C 27.1°F-2.7°C 55% 3.6 mph SE5.8 kmh SE 5.8 mph9.3 kmh 30.33 in1027.1 mb 0.00 in0.0 mm 0.00 in0.0 mm 0.00 in0.0 mm
09:10 AM 42.1°F5.6°C 26.6°F-3.0°C 54% 3.8 mph ESE6.1 kmh ESE 5.8 mph9.3 kmh 30.33 in1027.1 mb 0.00 in0.0 mm 0.00 in0.0 mm 0.00 in0.0 mm
09:05 AM 41.9°F5.5°C 26.4°F-3.1°C 54% 3.1 mph ESE5.0 kmh ESE 5.6 mph9.0 kmh 30.33 in1027.1 mb 0.00 in0.0 mm 0.00 in0.0 mm 0.00 in0.0 mm
09:00 AM 41.7°F5.4°C 26.7°F-2.9°C 55% 3.6 mph SE5.8 kmh SE 6.3 mph10.1 kmh 30.30 in1026.1 mb 0.00 in0.0 mm 0.00 in0.0 mm 0.00 in0.0 mm
08:55 AM 41.5°F5.3°C 26.6°F-3.0°C 55% 3.8 mph SE6.1 kmh SE 6.3 mph10.1 kmh 30.30 in1026.1 mb 0.00 in0.0 mm 0.00 in0.0 mm 0.00 in0.0 mm
08:50 AM 41.5°F5.3°C 26.6°F-3.0°C 55% 3.6 mph SE5.8 kmh SE 6.0 mph9.7 kmh 30.30 in1026.1 mb 0.00 in0.0 mm 0.00 in0.0 mm 0.00 in0.0 mm
08:45 AM 41.5°F5.3°C 26.6°F-3.0°C 55% 4.3 mph SE6.9 kmh SE 6.0 mph9.7 kmh 30.30 in1026.1 mb 0.00 in0.0 mm 0.00 in0.0 mm 0.00 in0.0 mm
08:40 AM 41.5°F5.3°C 26.6°F-3.0°C 55% 4.3 mph SE6.9 kmh SE 5.6 mph9.0 kmh 30.30 in1026.1 mb 0.00 in0.0 mm 0.00 in0.0 mm 0.00 in0.0 mm
08:35 AM 41.4°F5.2°C 26.4°F-3.1°C 55% 4.3 mph SE6.9 kmh SE 5.4 mph8.7 kmh 30.30 in1026.1 mb 0.00 in0.0 mm 0.00 in0.0 mm 0.00 in0.0 mm
08:30 AM 41.4°F5.2°C 26.4°F-3.1°C 55% 2.5 mph SE4.0 kmh SE 4.9 mph7.9 kmh 30.30 in1026.1 mb 0.00 in0.0 mm 0.00 in0.0 mm 0.00 in0.0 mm
08:25 AM 41.2°F5.1°C 26.7°F-2.9°C 56% 3.4 mph SE5.5 kmh SE 5.4 mph8.7 kmh 30.30 in1026.1 mb 0.00 in0.0 mm 0.00 in0.0 mm 0.00 in0.0 mm
08:20 AM 41.2°F5.1°C 26.2°F-3.2°C 55% 4.0 mph SE6.4 kmh SE 6.3 mph10.1 kmh 30.30 in1026.1 mb 0.00 in0.0 mm 0.00 in0.0 mm 0.00 in0.0 mm
08:15 AM 41.2°F5.1°C 26.2°F-3.2°C 55% 2.7 mph ESE4.3 kmh ESE 6.3 mph10.1 kmh 30.30 in1026.1 mb 0.00 in0.0 mm 0.00 in0.0 mm 0.00 in0.0 mm
08:10 AM 41.0°F5.0°C 26.1°F-3.3°C 55% 3.1 mph SE5.0 kmh SE 4.9 mph7.9 kmh 30.30 in1026.1 mb 0.00 in0.0 mm 0.00 in0.0 mm 0.00 in0.0 mm
08:05 AM 41.2°F5.1°C 26.2°F-3.2°C 55% 2.2 mph SE3.5 kmh SE 5.6 mph9.0 kmh 30.30 in1026.1 mb 0.00 in0.0 mm 0.00 in0.0 mm 0.00 in0.0 mm
08:00 AM 41.0°F5.0°C 26.1°F-3.3°C 55% 3.4 mph ESE5.5 kmh ESE 5.6 mph9.0 kmh 30.30 in1026.1 mb 0.00 in0.0 mm 0.00 in0.0 mm 0.00 in0.0 mm
07:55 AM 41.2°F5.1°C 26.2°F-3.2°C 55% 4.0 mph ESE6.4 kmh ESE 4.7 mph7.6 kmh 30.30 in1026.1 mb 0.00 in0.0 mm 0.00 in0.0 mm 0.00 in0.0 mm
07:50 AM 41.2°F5.1°C 26.2°F-3.2°C 55% 1.6 mph E2.6 kmh E 4.5 mph7.2 kmh 30.30 in1026.1 mb 0.00 in0.0 mm 0.00 in0.0 mm 0.00 in0.0 mm
07:45 AM 41.4°F5.2°C 25.9°F-3.4°C 54% 2.5 mph E4.0 kmh E 4.3 mph6.9 kmh 30.30 in1026.1 mb 0.00 in0.0 mm 0.00 in0.0 mm 0.00 in0.0 mm
07:40 AM 41.5°F5.3°C 26.1°F-3.3°C 54% 2.2 mph E3.5 kmh E 4.9 mph7.9 kmh 30.30 in1026.1 mb 0.00 in0.0 mm 0.00 in0.0 mm 0.00 in0.0 mm
07:35 AM 41.5°F5.3°C 25.7°F-3.5°C 53% 3.1 mph E5.0 kmh E 6.5 mph10.5 kmh 30.30 in1026.1 mb 0.00 in0.0 mm 0.00 in0.0 mm 0.00 in0.0 mm
07:30 AM 41.7°F5.4°C 25.8°F-3.4°C 53% 3.1 mph E5.0 kmh E 10.1 mph16.3 kmh 30.30 in1026.1 mb 0.00 in0.0 mm 0.00 in0.0 mm 0.00 in0.0 mm
07:25 AM 41.4°F5.2°C 25.9°F-3.4°C 54% 4.3 mph E6.9 kmh E 10.1 mph16.3 kmh 30.30 in1026.1 mb 0.00 in0.0 mm 0.00 in0.0 mm 0.00 in0.0 mm
07:20 AM 41.0°F5.0°C 26.5°F-3.1°C 56% 2.7 mph ESE4.3 kmh ESE 5.8 mph9.3 kmh 30.30 in1026.1 mb 0.00 in0.0 mm 0.00 in0.0 mm 0.00 in0.0 mm
07:15 AM 40.6°F4.8°C 26.6°F-3.0°C 57% 4.9 mph SE7.9 kmh SE 6.0 mph9.7 kmh 30.27 in1025.1 mb 0.00 in0.0 mm 0.00 in0.0 mm 0.00 in0.0 mm
07:10 AM 40.5°F4.7°C 26.4°F-3.1°C 57% 2.9 mph SE4.7 kmh SE 6.0 mph9.7 kmh 30.27 in1025.1 mb 0.00 in0.0 mm 0.00 in0.0 mm 0.00 in0.0 mm
07:05 AM 40.6°F4.8°C 26.6°F-3.0°C 57% 4.9 mph SE7.9 kmh SE 6.3 mph10.1 kmh 30.27 in1025.1 mb 0.00 in0.0 mm 0.00 in0.0 mm 0.00 in0.0 mm
07:00 AM 40.6°F4.8°C 26.2°F-3.2°C 56% 4.5 mph SE7.2 kmh SE 6.3 mph10.1 kmh 30.30 in1026.1 mb 0.00 in0.0 mm 0.00 in0.0 mm 0.00 in0.0 mm
06:55 AM 40.8°F4.9°C 25.9°F-3.4°C 55% 4.9 mph SE7.9 kmh SE 6.3 mph10.1 kmh 30.30 in1026.1 mb 0.00 in0.0 mm 0.00 in0.0 mm 0.00 in0.0 mm
06:50 AM 41.0°F5.0°C 26.1°F-3.3°C 55% 4.5 mph SE7.2 kmh SE 6.3 mph10.1 kmh 30.30 in1026.1 mb 0.00 in0.0 mm 0.00 in0.0 mm 0.00 in0.0 mm
06:45 AM 41.0°F5.0°C 26.1°F-3.3°C 55% 4.3 mph SE6.9 kmh SE 6.5 mph10.5 kmh 30.27 in1025.1 mb 0.00 in0.0 mm 0.00 in0.0 mm 0.00 in0.0 mm
06:40 AM 41.2°F5.1°C 25.8°F-3.4°C 54% 4.7 mph ESE7.6 kmh ESE 6.5 mph10.5 kmh 30.27 in1025.1 mb 0.00 in0.0 mm 0.00 in0.0 mm 0.00 in0.0 mm
06:35 AM 41.2°F5.1°C 26.2°F-3.2°C 55% 4.7 mph ESE7.6 kmh ESE 6.0 mph9.7 kmh 30.27 in1025.1 mb 0.00 in0.0 mm 0.00 in0.0 mm 0.00 in0.0 mm
06:30 AM 41.5°F5.3°C 26.1°F-3.3°C 54% 4.9 mph ESE7.9 kmh ESE 8.1 mph13.0 kmh 30.27 in1025.1 mb 0.00 in0.0 mm 0.00 in0.0 mm 0.00 in0.0 mm
06:25 AM 41.5°F5.3°C 25.7°F-3.5°C 53% 4.5 mph E7.2 kmh E 8.1 mph13.0 kmh 30.27 in1025.1 mb 0.00 in0.0 mm 0.00 in0.0 mm 0.00 in0.0 mm
06:20 AM 41.5°F5.3°C 26.1°F-3.3°C 54% 4.7 mph ESE7.6 kmh ESE 7.4 mph11.9 kmh 30.27 in1025.1 mb 0.00 in0.0 mm 0.00 in0.0 mm 0.00 in0.0 mm
06:15 AM 41.2°F5.1°C 26.2°F-3.2°C 55% 3.4 mph E5.5 kmh E 5.4 mph8.7 kmh 30.24 in1024.0 mb 0.00 in0.0 mm 0.00 in0.0 mm 0.00 in0.0 mm
06:10 AM 41.2°F5.1°C 26.2°F-3.2°C 55% 3.4 mph E5.5 kmh E 4.7 mph7.6 kmh 30.24 in1024.0 mb 0.00 in0.0 mm 0.00 in0.0 mm 0.00 in0.0 mm
06:05 AM 41.2°F5.1°C 26.2°F-3.2°C 55% 2.7 mph E4.3 kmh E 4.7 mph7.6 kmh 30.24 in1024.0 mb 0.00 in0.0 mm 0.00 in0.0 mm 0.00 in0.0 mm
06:00 AM 41.2°F5.1°C 26.2°F-3.2°C 55% 3.4 mph ESE5.5 kmh ESE 5.6 mph9.0 kmh 30.27 in1025.1 mb 0.00 in0.0 mm 0.00 in0.0 mm 0.00 in0.0 mm
05:55 AM 41.0°F5.0°C 26.5°F-3.1°C 56% 4.0 mph ESE6.4 kmh ESE 7.4 mph11.9 kmh 30.27 in1025.1 mb 0.00 in0.0 mm 0.00 in0.0 mm 0.00 in0.0 mm
05:50 AM 41.2°F5.1°C 26.7°F-2.9°C 56% 3.4 mph ESE5.5 kmh ESE 7.4 mph11.9 kmh 30.27 in1025.1 mb 0.00 in0.0 mm 0.00 in0.0 mm 0.00 in0.0 mm
05:45 AM 41.2°F5.1°C 26.7°F-2.9°C 56% 4.3 mph ESE6.9 kmh ESE 5.8 mph9.3 kmh 30.24 in1024.0 mb 0.00 in0.0 mm 0.00 in0.0 mm 0.00 in0.0 mm
05:40 AM 41.0°F5.0°C 27.3°F-2.6°C 58% 2.5 mph ESE4.0 kmh ESE 4.7 mph7.6 kmh 30.24 in1024.0 mb 0.00 in0.0 mm 0.00 in0.0 mm 0.00 in0.0 mm
05:35 AM 41.2°F5.1°C 27.1°F-2.7°C 57% 3.1 mph ESE5.0 kmh ESE 5.6 mph9.0 kmh 30.24 in1024.0 mb 0.00 in0.0 mm 0.00 in0.0 mm 0.00 in0.0 mm
05:30 AM 41.2°F5.1°C 26.7°F-2.9°C 56% 3.4 mph ESE5.5 kmh ESE 5.6 mph9.0 kmh 30.21 in1023.0 mb 0.00 in0.0 mm 0.00 in0.0 mm 0.00 in0.0 mm
05:25 AM 41.2°F5.1°C 27.9°F-2.3°C 59% 3.6 mph SE5.8 kmh SE 5.4 mph8.7 kmh 30.21 in1023.0 mb 0.00 in0.0 mm 0.00 in0.0 mm 0.00 in0.0 mm
05:20 AM 41.0°F5.0°C 27.8°F-2.3°C 59% 2.7 mph ESE4.3 kmh ESE 4.9 mph7.9 kmh 30.21 in1023.0 mb 0.00 in0.0 mm 0.00 in0.0 mm 0.00 in0.0 mm
05:15 AM 40.8°F4.9°C 27.2°F-2.7°C 58% 2.7 mph ESE4.3 kmh ESE 4.3 mph6.9 kmh 30.24 in1024.0 mb 0.00 in0.0 mm 0.00 in0.0 mm 0.00 in0.0 mm
05:10 AM 40.6°F4.8°C 27.4°F-2.6°C 59% 2.5 mph SE4.0 kmh SE 4.7 mph7.6 kmh 30.24 in1024.0 mb 0.00 in0.0 mm 0.00 in0.0 mm 0.00 in0.0 mm
05:05 AM 40.5°F4.7°C 28.1°F-2.2°C 61% 3.8 mph SE6.1 kmh SE 4.7 mph7.6 kmh 30.24 in1024.0 mb 0.00 in0.0 mm 0.00 in0.0 mm 0.00 in0.0 mm
05:00 AM 39.9°F4.4°C 28.3°F-2.1°C 63% 2.0 mph ESE3.2 kmh ESE 3.6 mph5.8 kmh 30.24 in1024.0 mb 0.00 in0.0 mm 0.00 in0.0 mm 0.00 in0.0 mm
04:55 AM 39.7°F4.3°C 28.5°F-1.9°C 64% 1.3 mph WSW2.1 kmh WSW 3.4 mph5.5 kmh 30.24 in1024.0 mb 0.00 in0.0 mm 0.00 in0.0 mm 0.00 in0.0 mm
04:50 AM 39.9°F4.4°C 28.7°F-1.8°C 64% 1.3 mph WSW2.1 kmh WSW 3.1 mph5.0 kmh 30.24 in1024.0 mb 0.00 in0.0 mm 0.00 in0.0 mm 0.00 in0.0 mm
04:45 AM 39.9°F4.4°C 28.7°F-1.8°C 64% 1.1 mph W1.8 kmh W 3.1 mph5.0 kmh 30.24 in1024.0 mb 0.00 in0.0 mm 0.00 in0.0 mm 0.00 in0.0 mm
04:40 AM 39.9°F4.4°C 28.7°F-1.8°C 64% Calm Calm 3.1 mph5.0 kmh 30.24 in1024.0 mb 0.00 in0.0 mm 0.00 in0.0 mm 0.00 in0.0 mm
04:35 AM 39.9°F4.4°C 28.7°F-1.8°C 64% 2.5 mph WSW4.0 kmh WSW 2.9 mph4.7 kmh 30.24 in1024.0 mb 0.00 in0.0 mm 0.00 in0.0 mm 0.00 in0.0 mm
04:30 AM 39.9°F4.4°C 28.7°F-1.8°C 64% Calm Calm 4.0 mph6.4 kmh 30.21 in1023.0 mb 0.00 in0.0 mm 0.00 in0.0 mm 0.00 in0.0 mm
04:25 AM 39.9°F4.4°C 28.7°F-1.8°C 64% 2.2 mph SW3.5 kmh SW 4.0 mph6.4 kmh 30.21 in1023.0 mb 0.00 in0.0 mm 0.00 in0.0 mm 0.00 in0.0 mm
04:20 AM 40.1°F4.5°C 28.9°F-1.7°C 64% 1.6 mph SSE2.6 kmh SSE 3.4 mph5.5 kmh 30.21 in1023.0 mb 0.00 in0.0 mm 0.00 in0.0 mm 0.00 in0.0 mm
04:15 AM 40.3°F4.6°C 29.1°F-1.6°C 64% 2.7 mph E4.3 kmh E 3.6 mph5.8 kmh 30.24 in1024.0 mb 0.00 in0.0 mm 0.00 in0.0 mm 0.00 in0.0 mm
04:10 AM 40.1°F4.5°C 28.9°F-1.7°C 64% 2.0 mph E3.2 kmh E 4.3 mph6.9 kmh 30.24 in1024.0 mb 0.00 in0.0 mm 0.00 in0.0 mm 0.00 in0.0 mm
04:05 AM 40.1°F4.5°C 29.3°F-1.5°C 65% 2.2 mph E3.5 kmh E 4.3 mph6.9 kmh 30.24 in1024.0 mb 0.00 in0.0 mm 0.00 in0.0 mm 0.00 in0.0 mm
04:00 AM 39.9°F4.4°C 29.5°F-1.4°C 66% 3.1 mph ESE5.0 kmh ESE 4.3 mph6.9 kmh 30.24 in1024.0 mb 0.00 in0.0 mm 0.00 in0.0 mm 0.00 in0.0 mm
03:55 AM 39.4°F4.1°C 29.7°F-1.3°C 68% Calm Calm 3.4 mph5.5 kmh 30.24 in1024.0 mb 0.00 in0.0 mm 0.00 in0.0 mm 0.00 in0.0 mm
03:50 AM 39.2°F4.0°C 29.9°F-1.2°C 69% 2.0 mph E3.2 kmh E 3.8 mph6.1 kmh 30.24 in1024.0 mb 0.00 in0.0 mm 0.00 in0.0 mm 0.00 in0.0 mm
03:45 AM 38.7°F3.7°C 29.7°F-1.3°C 70% 2.2 mph ENE3.5 kmh ENE 3.8 mph6.1 kmh 30.24 in1024.0 mb 0.00 in0.0 mm 0.00 in0.0 mm 0.00 in0.0 mm
03:40 AM 38.5°F3.6°C 29.9°F-1.2°C 71% 2.0 mph ENE3.2 kmh ENE 3.4 mph5.5 kmh 30.24 in1024.0 mb 0.00 in0.0 mm 0.00 in0.0 mm 0.00 in0.0 mm
03:35 AM 38.5°F3.6°C 29.5°F-1.4°C 70% Calm Calm 1.3 mph2.1 kmh 30.24 in1024.0 mb 0.00 in0.0 mm 0.00 in0.0 mm 0.00 in0.0 mm
03:30 AM 38.5°F3.6°C 29.5°F-1.4°C 70% Calm Calm 3.4 mph5.5 kmh 30.24 in1024.0 mb 0.00 in0.0 mm 0.00 in0.0 mm 0.00 in0.0 mm
03:25 AM 38.5°F3.6°C 29.5°F-1.4°C 70% Calm Calm 3.4 mph5.5 kmh 30.24 in1024.0 mb 0.00 in0.0 mm 0.00 in0.0 mm 0.00 in0.0 mm
03:20 AM 38.7°F3.7°C 29.7°F-1.3°C 70% 1.6 mph W2.6 kmh W 2.9 mph4.7 kmh 30.24 in1024.0 mb 0.00 in0.0 mm 0.00 in0.0 mm 0.00 in0.0 mm
03:15 AM 38.7°F3.7°C 29.4°F-1.4°C 69% 2.5 mph ESE4.0 kmh ESE 3.4 mph5.5 kmh 30.24 in1024.0 mb 0.00 in0.0 mm 0.00 in0.0 mm 0.00 in0.0 mm
03:10 AM 38.7°F3.7°C 29.4°F-1.4°C 69% Calm Calm 3.4 mph5.5 kmh 30.24 in1024.0 mb 0.00 in0.0 mm 0.00 in0.0 mm 0.00 in0.0 mm
03:05 AM 38.7°F3.7°C 29.4°F-1.4°C 69% 2.0 mph E3.2 kmh E 2.7 mph4.3 kmh 30.24 in1024.0 mb 0.00 in0.0 mm 0.00 in0.0 mm 0.00 in0.0 mm
03:00 AM 38.8°F3.8°C 29.2°F-1.6°C 68% Calm Calm 2.2 mph3.5 kmh 30.24 in1024.0 mb 0.00 in0.0 mm 0.00 in0.0 mm 0.00 in0.0 mm
02:55 AM 38.8°F3.8°C 29.2°F-1.6°C 68% 1.6 mph WSW2.6 kmh WSW 2.9 mph4.7 kmh 30.24 in1024.0 mb 0.00 in0.0 mm 0.00 in0.0 mm 0.00 in0.0 mm
02:50 AM 39.2°F4.0°C 29.5°F-1.4°C 68% Calm Calm 2.9 mph4.7 kmh 30.24 in1024.0 mb 0.00 in0.0 mm 0.00 in0.0 mm 0.00 in0.0 mm
02:45 AM 39.4°F4.1°C 29.3°F-1.5°C 67% Calm Calm 2.0 mph3.2 kmh 30.24 in1024.0 mb 0.00 in0.0 mm 0.00 in0.0 mm 0.00 in0.0 mm
02:40 AM 39.6°F4.2°C 29.5°F-1.4°C 67% 0.9 mph N1.4 kmh N 3.4 mph5.5 kmh 30.24 in1024.0 mb 0.00 in0.0 mm 0.00 in0.0 mm 0.00 in0.0 mm
02:35 AM 39.7°F4.3°C 29.7°F-1.3°C 67% 2.0 mph E3.2 kmh E 3.4 mph5.5 kmh 30.24 in1024.0 mb 0.00 in0.0 mm 0.00 in0.0 mm 0.00 in0.0 mm
02:30 AM 39.9°F4.4°C 29.5°F-1.4°C 66% 1.1 mph ESE1.8 kmh ESE 3.4 mph5.5 kmh 30.24 in1024.0 mb 0.00 in0.0 mm 0.00 in0.0 mm 0.00 in0.0 mm
02:25 AM 39.9°F4.4°C 29.5°F-1.4°C 66% 2.2 mph E3.5 kmh E 4.0 mph6.4 kmh 30.24 in1024.0 mb 0.00 in0.0 mm 0.00 in0.0 mm 0.00 in0.0 mm
02:20 AM 39.9°F4.4°C 29.8°F-1.2°C 67% 1.3 mph E2.1 kmh E 4.9 mph7.9 kmh 30.24 in1024.0 mb 0.00 in0.0 mm 0.00 in0.0 mm 0.00 in0.0 mm
02:15 AM 39.7°F4.3°C 30.0°F-1.1°C 68% 4.5 mph ESE7.2 kmh ESE 4.9 mph7.9 kmh 30.24 in1024.0 mb 0.00 in0.0 mm 0.00 in0.0 mm 0.00 in0.0 mm
02:10 AM 39.2°F4.0°C 29.9°F-1.2°C 69% 3.4 mph SE5.5 kmh SE 3.6 mph5.8 kmh 30.24 in1024.0 mb 0.00 in0.0 mm 0.00 in0.0 mm 0.00 in0.0 mm
02:05 AM 39.0°F3.9°C 30.1°F-1.1°C 70% 1.1 mph SW1.8 kmh SW 2.7 mph4.3 kmh 30.24 in1024.0 mb 0.00 in0.0 mm 0.00 in0.0 mm 0.00 in0.0 mm
02:00 AM 38.8°F3.8°C 29.9°F-1.2°C 70% 1.1 mph W1.8 kmh W 2.2 mph3.5 kmh 30.21 in1023.0 mb 0.00 in0.0 mm 0.00 in0.0 mm 0.00 in0.0 mm
01:55 AM 38.8°F3.8°C 29.5°F-1.4°C 69% Calm Calm 2.2 mph3.5 kmh 30.21 in1023.0 mb 0.00 in0.0 mm 0.00 in0.0 mm 0.00 in0.0 mm
01:50 AM 38.8°F3.8°C 29.2°F-1.6°C 68% 1.1 mph NNE1.8 kmh NNE 2.5 mph4.0 kmh 30.21 in1023.0 mb 0.00 in0.0 mm 0.00 in0.0 mm 0.00 in0.0 mm
01:45 AM 39.2°F4.0°C 29.5°F-1.4°C 68% Calm Calm 2.5 mph4.0 kmh 30.21 in1023.0 mb 0.00 in0.0 mm 0.00 in0.0 mm 0.00 in0.0 mm
01:40 AM 39.2°F4.0°C 29.2°F-1.6°C 67% 1.6 mph ENE2.6 kmh ENE 2.2 mph3.5 kmh 30.21 in1023.0 mb 0.00 in0.0 mm 0.00 in0.0 mm 0.00 in0.0 mm
01:35 AM 39.4°F4.1°C 29.3°F-1.5°C 67% 0.9 mph E1.4 kmh E 3.4 mph5.5 kmh 30.21 in1023.0 mb 0.00 in0.0 mm 0.00 in0.0 mm 0.00 in0.0 mm
01:30 AM 39.6°F4.2°C 29.1°F-1.6°C 66% Calm Calm 3.4 mph5.5 kmh 30.21 in1023.0 mb 0.00 in0.0 mm 0.00 in0.0 mm 0.00 in0.0 mm
01:25 AM 39.6°F4.2°C 29.1°F-1.6°C 66% Calm Calm 2.2 mph3.5 kmh 30.21 in1023.0 mb 0.00 in0.0 mm 0.00 in0.0 mm 0.00 in0.0 mm
01:20 AM 39.7°F4.3°C 28.9°F-1.7°C 65% Calm Calm 3.1 mph5.0 kmh 30.21 in1023.0 mb 0.00 in0.0 mm 0.00 in0.0 mm 0.00 in0.0 mm
01:15 AM 39.7°F4.3°C 28.9°F-1.7°C 65% Calm Calm 3.6 mph5.8 kmh 30.21 in1023.0 mb 0.00 in0.0 mm 0.00 in0.0 mm 0.00 in0.0 mm
01:10 AM 39.7°F4.3°C 28.9°F-1.7°C 65% 1.3 mph WSW2.1 kmh WSW 3.6 mph5.8 kmh 30.21 in1023.0 mb 0.00 in0.0 mm 0.00 in0.0 mm 0.00 in0.0 mm
01:05 AM 39.9°F4.4°C 28.7°F-1.8°C 64% Calm Calm 2.2 mph3.5 kmh 30.21 in1023.0 mb 0.00 in0.0 mm 0.00 in0.0 mm 0.00 in0.0 mm
01:00 AM 40.3°F4.6°C 28.7°F-1.8°C 63% Calm Calm 2.2 mph3.5 kmh 30.21 in1023.0 mb 0.00 in0.0 mm 0.00 in0.0 mm 0.00 in0.0 mm
12:55 AM 40.3°F4.6°C 28.7°F-1.8°C 63% Calm Calm -- 30.21 in1023.0 mb 0.00 in0.0 mm 0.00 in0.0 mm 0.00 in0.0 mm
12:50 AM 40.6°F4.8°C 29.0°F-1.7°C 63% Calm Calm 2.5 mph4.0 kmh 30.21 in1023.0 mb 0.00 in0.0 mm 0.00 in0.0 mm 0.00 in0.0 mm
12:45 AM 40.8°F4.9°C 28.8°F-1.8°C 62% Calm Calm 2.5 mph4.0 kmh 30.21 in1023.0 mb 0.00 in0.0 mm 0.00 in0.0 mm 0.00 in0.0 mm
12:40 AM 41.0°F5.0°C 28.6°F-1.9°C 61% 1.6 mph E2.6 kmh E 2.9 mph4.7 kmh 30.21 in1023.0 mb 0.00 in0.0 mm 0.00 in0.0 mm 0.00 in0.0 mm
12:35 AM 41.2°F5.1°C 28.7°F-1.8°C 61% 2.0 mph ESE3.2 kmh ESE 2.9 mph4.7 kmh 30.21 in1023.0 mb 0.00 in0.0 mm 0.00 in0.0 mm 0.00 in0.0 mm
12:30 AM 41.4°F5.2°C 28.9°F-1.7°C 61% 1.3 mph E2.1 kmh E 4.3 mph6.9 kmh 30.21 in1023.0 mb 0.00 in0.0 mm 0.00 in0.0 mm 0.00 in0.0 mm
12:25 AM 41.4°F5.2°C 28.5°F-1.9°C 60% 2.2 mph E3.5 kmh E 4.3 mph6.9 kmh 30.21 in1023.0 mb 0.00 in0.0 mm 0.00 in0.0 mm 0.00 in0.0 mm
12:20 AM 41.5°F5.3°C 29.1°F-1.6°C 61% 2.5 mph ESE4.0 kmh ESE 4.0 mph6.4 kmh 30.21 in1023.0 mb 0.00 in0.0 mm 0.00 in0.0 mm 0.00 in0.0 mm
12:15 AM 41.7°F5.4°C 29.6°F-1.3°C 62% 2.2 mph E3.5 kmh E 4.7 mph7.6 kmh 30.21 in1023.0 mb 0.00 in0.0 mm 0.00 in0.0 mm 0.00 in0.0 mm
12:10 AM 41.7°F5.4°C 29.6°F-1.3°C 62% 2.5 mph ESE4.0 kmh ESE 5.6 mph9.0 kmh 30.21 in1023.0 mb 0.00 in0.0 mm 0.00 in0.0 mm 0.00 in0.0 mm
12:05 AM 41.7°F5.4°C 30.0°F-1.1°C 63% 4.5 mph ESE7.2 kmh ESE 6.3 mph10.1 kmh 30.21 in1023.0 mb 0.00 in0.0 mm 0.00 in0.0 mm 0.00 in0.0 mm
12:00 AM 41.7°F5.4°C 30.0°F-1.1°C 63% 4.3 mph ESE6.9 kmh ESE 6.3 mph10.1 kmh 30.21 in1023.0 mb 0.00 in0.0 mm 0.00 in0.0 mm 0.00 in0.0 mm